Healing Springs, Virginia
Current Conditions -  °F | °C
As of 2:15 PM on Tuesday 21 Oct 2014 (Local Time) from KHSP Reporting Station
Light Rain Light Rain  
Wind Chill: 40°   Ceiling: 500
Heat Index: 46°   Visibility: 2.5mi
Dew Point: 45°   Wind: 14mph
Humidity: 97%   Direction: 290°WNW
Pressure: 29.87"   Gusts: 20mph
Location:  37.9738°N, 79.8988°W
Report Text: KHSP 211815Z AUTO 29012G17KT 2 1/2SM -RA BKN005 OVC010 08/07 A2987 RMK AO2 P0001 T00780074
Loading
Personal Weather Stations






























Interactive Weather Map
Tropical Storm Tracking
New forecast layout! Learn more

10-Day Weather Forecast

Advertisements
Track Severe Weather on mobile